sensor_id;sensor_type;location;lat;lon;timestamp;temperature;humidity
36416;DHT22;22447;44.530;18.620;2023-05-20T00:00:44;11.60;99.90
36416;DHT22;22447;44.530;18.620;2023-05-20T00:03:13;11.70;99.90
36416;DHT22;22447;44.530;18.620;2023-05-20T00:05:39;11.60;99.90
36416;DHT22;22447;44.530;18.620;2023-05-20T00:08:05;11.60;99.90
36416;DHT22;22447;44.530;18.620;2023-05-20T00:10:37;11.60;99.90
36416;DHT22;22447;44.530;18.620;2023-05-20T00:13:03;11.60;99.90
36416;DHT22;22447;44.530;18.620;2023-05-20T00:15:29;11.70;99.90
36416;DHT22;22447;44.530;18.620;2023-05-20T00:17:55;11.60;99.90
36416;DHT22;22447;44.530;18.620;2023-05-20T00:20:21;11.60;99.90
36416;DHT22;22447;44.530;18.620;2023-05-20T00:22:47;11.50;99.90
36416;DHT22;22447;44.530;18.620;2023-05-20T00:25:13;11.50;99.90
36416;DHT22;22447;44.530;18.620;2023-05-20T00:27:40;11.50;99.90
36416;DHT22;22447;44.530;18.620;2023-05-20T00:30:06;11.50;99.90
36416;DHT22;22447;44.530;18.620;2023-05-20T00:32:33;11.50;99.90
36416;DHT22;22447;44.530;18.620;2023-05-20T00:35:00;11.40;99.90
36416;DHT22;22447;44.530;18.620;2023-05-20T00:37:26;11.30;99.90
36416;DHT22;22447;44.530;18.620;2023-05-20T00:39:52;11.30;99.90
36416;DHT22;22447;44.530;18.620;2023-05-20T00:42:25;11.30;99.90
36416;DHT22;22447;44.530;18.620;2023-05-20T00:44:52;11.20;99.90
36416;DHT22;22447;44.530;18.620;2023-05-20T00:47:20;11.30;99.90
36416;DHT22;22447;44.530;18.620;2023-05-20T00:49:49;11.10;99.90
36416;DHT22;22447;44.530;18.620;2023-05-20T00:52:20;11.00;99.90
36416;DHT22;22447;44.530;18.620;2023-05-20T00:54:46;11.00;99.90
36416;DHT22;22447;44.530;18.620;2023-05-20T00:57:13;11.00;99.90
36416;DHT22;22447;44.530;18.620;2023-05-20T00:59:39;10.90;99.90
36416;DHT22;22447;44.530;18.620;2023-05-20T01:02:05;11.00;99.90
36416;DHT22;22447;44.530;18.620;2023-05-20T01:04:32;11.00;99.90
36416;DHT22;22447;44.530;18.620;2023-05-20T01:07:00;10.90;99.90
36416;DHT22;22447;44.530;18.620;2023-05-20T01:09:27;10.90;99.90
36416;DHT22;22447;44.530;18.620;2023-05-20T01:12:01;10.90;99.90
36416;DHT22;22447;44.530;18.620;2023-05-20T01:14:31;11.00;99.90
36416;DHT22;22447;44.530;18.620;2023-05-20T01:17:01;11.00;99.90
36416;DHT22;22447;44.530;18.620;2023-05-20T01:19:44;11.00;99.90
36416;DHT22;22447;44.530;18.620;2023-05-20T01:22:11;10.80;99.90
36416;DHT22;22447;44.530;18.620;2023-05-20T01:24:45;10.80;99.90
36416;DHT22;22447;44.530;18.620;2023-05-20T01:27:14;10.80;99.90
36416;DHT22;22447;44.530;18.620;2023-05-20T01:29:41;10.80;99.90
36416;DHT22;22447;44.530;18.620;2023-05-20T01:34:43;10.90;99.90
36416;DHT22;22447;44.530;18.620;2023-05-20T01:37:10;10.90;99.90
36416;DHT22;22447;44.530;18.620;2023-05-20T01:39:38;10.80;99.90
36416;DHT22;22447;44.530;18.620;2023-05-20T01:42:07;10.80;99.90
36416;DHT22;22447;44.530;18.620;2023-05-20T01:44:35;10.70;99.90
36416;DHT22;22447;44.530;18.620;2023-05-20T01:47:01;10.60;99.90
36416;DHT22;22447;44.530;18.620;2023-05-20T01:49:27;10.60;99.90
36416;DHT22;22447;44.530;18.620;2023-05-20T01:51:53;10.60;99.90
36416;DHT22;22447;44.530;18.620;2023-05-20T01:54:19;10.60;99.90
36416;DHT22;22447;44.530;18.620;2023-05-20T01:56:46;10.50;99.90
36416;DHT22;22447;44.530;18.620;2023-05-20T01:59:12;10.50;99.90
36416;DHT22;22447;44.530;18.620;2023-05-20T02:01:38;10.50;99.90
36416;DHT22;22447;44.530;18.620;2023-05-20T02:04:04;10.50;99.90
36416;DHT22;22447;44.530;18.620;2023-05-20T02:06:30;10.50;99.90
36416;DHT22;22447;44.530;18.620;2023-05-20T02:08:56;10.50;99.90
36416;DHT22;22447;44.530;18.620;2023-05-20T02:11:22;10.60;99.90
36416;DHT22;22447;44.530;18.620;2023-05-20T02:13:49;10.70;99.90
36416;DHT22;22447;44.530;18.620;2023-05-20T02:16:15;10.70;99.90
36416;DHT22;22447;44.530;18.620;2023-05-20T02:18:42;10.70;99.90
36416;DHT22;22447;44.530;18.620;2023-05-20T02:21:09;10.70;99.90
36416;DHT22;22447;44.530;18.620;2023-05-20T02:23:35;10.60;99.90
36416;DHT22;22447;44.530;18.620;2023-05-20T02:26:01;10.70;99.90
36416;DHT22;22447;44.530;18.620;2023-05-20T02:28:27;10.70;99.90
36416;DHT22;22447;44.530;18.620;2023-05-20T02:30:54;10.60;99.90
36416;DHT22;22447;44.530;18.620;2023-05-20T02:33:20;10.70;99.90
36416;DHT22;22447;44.530;18.620;2023-05-20T02:35:46;10.70;99.90
36416;DHT22;22447;44.530;18.620;2023-05-20T02:38:13;10.70;99.90
36416;DHT22;22447;44.530;18.620;2023-05-20T02:40:39;10.80;99.90
36416;DHT22;22447;44.530;18.620;2023-05-20T02:43:08;10.80;99.90
36416;DHT22;22447;44.530;18.620;2023-05-20T02:45:34;10.80;99.90
36416;DHT22;22447;44.530;18.620;2023-05-20T02:48:00;10.70;99.90
36416;DHT22;22447;44.530;18.620;2023-05-20T02:50:26;10.60;99.90
36416;DHT22;22447;44.530;18.620;2023-05-20T02:52:52;10.50;99.90
36416;DHT22;22447;44.530;18.620;2023-05-20T02:55:18;10.50;99.90
36416;DHT22;22447;44.530;18.620;2023-05-20T02:57:44;10.40;99.90
36416;DHT22;22447;44.530;18.620;2023-05-20T03:00:11;10.50;99.90
36416;DHT22;22447;44.530;18.620;2023-05-20T03:02:41;10.50;99.90
36416;DHT22;22447;44.530;18.620;2023-05-20T03:05:08;10.60;99.90
36416;DHT22;22447;44.530;18.620;2023-05-20T03:07:34;10.60;99.90
36416;DHT22;22447;44.530;18.620;2023-05-20T03:10:01;10.60;99.90
36416;DHT22;22447;44.530;18.620;2023-05-20T03:12:28;10.70;99.90
36416;DHT22;22447;44.530;18.620;2023-05-20T03:14:54;10.70;99.90
36416;DHT22;22447;44.530;18.620;2023-05-20T03:17:21;10.70;99.90
36416;DHT22;22447;44.530;18.620;2023-05-20T03:19:47;10.70;99.90
36416;DHT22;22447;44.530;18.620;2023-05-20T03:22:13;10.70;99.90
36416;DHT22;22447;44.530;18.620;2023-05-20T03:24:40;10.70;99.90
36416;DHT22;22447;44.530;18.620;2023-05-20T03:27:07;10.70;99.90
36416;DHT22;22447;44.530;18.620;2023-05-20T03:29:34;10.80;99.90
36416;DHT22;22447;44.530;18.620;2023-05-20T03:32:01;10.80;99.90
36416;DHT22;22447;44.530;18.620;2023-05-20T03:34:27;10.80;99.90
36416;DHT22;22447;44.530;18.620;2023-05-20T03:36:55;10.80;99.90
36416;DHT22;22447;44.530;18.620;2023-05-20T03:39:22;10.80;99.90
36416;DHT22;22447;44.530;18.620;2023-05-20T03:41:48;10.90;99.90
36416;DHT22;22447;44.530;18.620;2023-05-20T03:44:14;10.90;99.90
36416;DHT22;22447;44.530;18.620;2023-05-20T03:46:40;10.90;99.90
36416;DHT22;22447;44.530;18.620;2023-05-20T03:49:07;10.90;99.90
36416;DHT22;22447;44.530;18.620;2023-05-20T03:51:33;10.90;99.90
36416;DHT22;22447;44.530;18.620;2023-05-20T03:54:04;10.80;99.90
36416;DHT22;22447;44.530;18.620;2023-05-20T03:56:31;10.80;99.90
36416;DHT22;22447;44.530;18.620;2023-05-20T03:58:56;10.90;99.90
36416;DHT22;22447;44.530;18.620;2023-05-20T04:01:23;10.90;99.90
36416;DHT22;22447;44.530;18.620;2023-05-20T04:03:50;10.90;99.90
36416;DHT22;22447;44.530;18.620;2023-05-20T04:06:16;10.90;99.90
36416;DHT22;22447;44.530;18.620;2023-05-20T04:08:42;10.90;99.90
36416;DHT22;22447;44.530;18.620;2023-05-20T04:11:08;11.10;99.90
36416;DHT22;22447;44.530;18.620;2023-05-20T04:13:35;11.10;99.90
36416;DHT22;22447;44.530;18.620;2023-05-20T04:16:01;11.30;99.90
36416;DHT22;22447;44.530;18.620;2023-05-20T04:18:30;11.30;99.90
36416;DHT22;22447;44.530;18.620;2023-05-20T04:20:56;11.30;99.90
36416;DHT22;22447;44.530;18.620;2023-05-20T04:23:23;11.40;99.90
36416;DHT22;22447;44.530;18.620;2023-05-20T04:25:49;11.50;99.90
36416;DHT22;22447;44.530;18.620;2023-05-20T04:28:16;11.50;99.90
36416;DHT22;22447;44.530;18.620;2023-05-20T04:30:42;11.50;99.90
36416;DHT22;22447;44.530;18.620;2023-05-20T04:33:11;11.60;99.90
36416;DHT22;22447;44.530;18.620;2023-05-20T04:35:37;11.70;99.90
36416;DHT22;22447;44.530;18.620;2023-05-20T04:38:07;11.60;99.90
36416;DHT22;22447;44.530;18.620;2023-05-20T04:40:34;11.40;99.90
36416;DHT22;22447;44.530;18.620;2023-05-20T04:43:00;11.50;99.90
36416;DHT22;22447;44.530;18.620;2023-05-20T04:45:26;11.70;99.90
36416;DHT22;22447;44.530;18.620;2023-05-20T04:47:52;11.80;99.90
36416;DHT22;22447;44.530;18.620;2023-05-20T04:50:19;11.90;99.90
36416;DHT22;22447;44.530;18.620;2023-05-20T04:52:46;12.00;99.90
36416;DHT22;22447;44.530;18.620;2023-05-20T04:55:12;11.90;99.90
36416;DHT22;22447;44.530;18.620;2023-05-20T04:57:40;11.90;99.90
36416;DHT22;22447;44.530;18.620;2023-05-20T05:00:11;12.00;99.90
36416;DHT22;22447;44.530;18.620;2023-05-20T05:02:38;11.90;99.90
36416;DHT22;22447;44.530;18.620;2023-05-20T05:05:04;12.10;99.90
36416;DHT22;22447;44.530;18.620;2023-05-20T05:07:31;12.20;99.90
36416;DHT22;22447;44.530;18.620;2023-05-20T05:09:57;12.30;99.90
36416;DHT22;22447;44.530;18.620;2023-05-20T05:12:23;12.40;99.90
36416;DHT22;22447;44.530;18.620;2023-05-20T05:14:49;12.50;99.90
36416;DHT22;22447;44.530;18.620;2023-05-20T05:17:15;12.50;99.90
36416;DHT22;22447;44.530;18.620;2023-05-20T05:19:41;12.60;99.90
36416;DHT22;22447;44.530;18.620;2023-05-20T05:22:07;12.60;99.90
36416;DHT22;22447;44.530;18.620;2023-05-20T05:24:34;12.70;99.90
36416;DHT22;22447;44.530;18.620;2023-05-20T05:27:00;12.70;99.90
36416;DHT22;22447;44.530;18.620;2023-05-20T05:29:26;12.70;99.90
36416;DHT22;22447;44.530;18.620;2023-05-20T05:31:52;12.90;99.90
36416;DHT22;22447;44.530;18.620;2023-05-20T05:34:18;12.90;99.90
36416;DHT22;22447;44.530;18.620;2023-05-20T05:36:44;12.80;99.90
36416;DHT22;22447;44.530;18.620;2023-05-20T05:39:10;13.00;99.90
36416;DHT22;22447;44.530;18.620;2023-05-20T05:41:36;13.00;99.90
36416;DHT22;22447;44.530;18.620;2023-05-20T05:44:03;13.00;99.90
36416;DHT22;22447;44.530;18.620;2023-05-20T05:46:29;13.00;99.90
36416;DHT22;22447;44.530;18.620;2023-05-20T05:48:56;13.20;99.90
36416;DHT22;22447;44.530;18.620;2023-05-20T05:51:23;13.20;99.90
36416;DHT22;22447;44.530;18.620;2023-05-20T05:53:52;13.40;99.90
36416;DHT22;22447;44.530;18.620;2023-05-20T05:56:19;13.60;99.90
36416;DHT22;22447;44.530;18.620;2023-05-20T05:58:46;13.60;99.90
36416;DHT22;22447;44.530;18.620;2023-05-20T06:01:13;13.70;99.90
36416;DHT22;22447;44.530;18.620;2023-05-20T06:03:39;13.80;99.90
36416;DHT22;22447;44.530;18.620;2023-05-20T06:06:05;13.80;99.90
36416;DHT22;22447;44.530;18.620;2023-05-20T06:08:32;13.90;99.90
36416;DHT22;22447;44.530;18.620;2023-05-20T06:10:58;14.00;99.90
36416;DHT22;22447;44.530;18.620;2023-05-20T06:13:24;13.80;99.90
36416;DHT22;22447;44.530;18.620;2023-05-20T06:15:50;13.60;99.90
36416;DHT22;22447;44.530;18.620;2023-05-20T06:18:18;13.70;99.90
36416;DHT22;22447;44.530;18.620;2023-05-20T06:20:44;13.80;99.90
36416;DHT22;22447;44.530;18.620;2023-05-20T06:23:10;13.90;99.90
36416;DHT22;22447;44.530;18.620;2023-05-20T06:25:44;13.90;99.90
36416;DHT22;22447;44.530;18.620;2023-05-20T06:28:11;13.90;99.90
36416;DHT22;22447;44.530;18.620;2023-05-20T06:30:38;14.20;99.90
36416;DHT22;22447;44.530;18.620;2023-05-20T06:33:04;14.50;99.90
36416;DHT22;22447;44.530;18.620;2023-05-20T06:35:30;14.70;99.90
36416;DHT22;22447;44.530;18.620;2023-05-20T06:37:55;14.90;99.90
36416;DHT22;22447;44.530;18.620;2023-05-20T06:40:21;14.90;99.90
36416;DHT22;22447;44.530;18.620;2023-05-20T06:42:48;15.00;99.90
36416;DHT22;22447;44.530;18.620;2023-05-20T06:45:14;15.10;99.90
36416;DHT22;22447;44.530;18.620;2023-05-20T06:47:53;15.10;99.90
36416;DHT22;22447;44.530;18.620;2023-05-20T06:50:19;15.10;99.90
36416;DHT22;22447;44.530;18.620;2023-05-20T06:52:45;15.20;99.90
36416;DHT22;22447;44.530;18.620;2023-05-20T06:55:12;15.20;99.90
36416;DHT22;22447;44.530;18.620;2023-05-20T06:57:39;15.40;99.90
36416;DHT22;22447;44.530;18.620;2023-05-20T07:00:05;15.60;99.90
36416;DHT22;22447;44.530;18.620;2023-05-20T07:02:37;15.80;99.90
36416;DHT22;22447;44.530;18.620;2023-05-20T07:05:04;16.00;99.90
36416;DHT22;22447;44.530;18.620;2023-05-20T07:07:30;16.10;99.90
36416;DHT22;22447;44.530;18.620;2023-05-20T07:09:57;16.20;99.90
36416;DHT22;22447;44.530;18.620;2023-05-20T07:12:24;16.20;99.90
36416;DHT22;22447;44.530;18.620;2023-05-20T07:14:50;16.30;99.90
36416;DHT22;22447;44.530;18.620;2023-05-20T07:17:16;16.50;99.90
36416;DHT22;22447;44.530;18.620;2023-05-20T07:19:44;16.40;99.90
36416;DHT22;22447;44.530;18.620;2023-05-20T07:22:10;16.60;99.90
36416;DHT22;22447;44.530;18.620;2023-05-20T07:24:56;16.80;99.90
36416;DHT22;22447;44.530;18.620;2023-05-20T07:27:22;16.80;99.90
36416;DHT22;22447;44.530;18.620;2023-05-20T07:29:48;17.10;99.90
36416;DHT22;22447;44.530;18.620;2023-05-20T07:32:14;17.30;99.90
36416;DHT22;22447;44.530;18.620;2023-05-20T07:34:40;17.40;99.90
36416;DHT22;22447;44.530;18.620;2023-05-20T07:37:08;17.60;99.90
36416;DHT22;22447;44.530;18.620;2023-05-20T07:39:36;17.80;99.90
36416;DHT22;22447;44.530;18.620;2023-05-20T07:42:02;18.10;99.90
36416;DHT22;22447;44.530;18.620;2023-05-20T07:44:28;18.50;99.90
36416;DHT22;22447;44.530;18.620;2023-05-20T07:46:54;18.90;99.90
36416;DHT22;22447;44.530;18.620;2023-05-20T07:49:21;19.40;99.90
36416;DHT22;22447;44.530;18.620;2023-05-20T07:51:47;19.80;99.90
36416;DHT22;22447;44.530;18.620;2023-05-20T07:54:14;20.20;99.90
36416;DHT22;22447;44.530;18.620;2023-05-20T07:56:41;20.30;99.90
36416;DHT22;22447;44.530;18.620;2023-05-20T07:59:09;20.50;99.90
36416;DHT22;22447;44.530;18.620;2023-05-20T08:01:41;19.90;99.90
36416;DHT22;22447;44.530;18.620;2023-05-20T08:04:08;20.40;99.90
36416;DHT22;22447;44.530;18.620;2023-05-20T08:06:35;20.30;99.90
36416;DHT22;22447;44.530;18.620;2023-05-20T08:09:06;20.40;99.90
36416;DHT22;22447;44.530;18.620;2023-05-20T08:11:35;20.40;99.90
36416;DHT22;22447;44.530;18.620;2023-05-20T08:14:01;20.60;99.90
36416;DHT22;22447;44.530;18.620;2023-05-20T08:16:31;20.60;99.90
36416;DHT22;22447;44.530;18.620;2023-05-20T08:18:58;20.80;99.90
36416;DHT22;22447;44.530;18.620;2023-05-20T08:21:24;21.30;99.90
36416;DHT22;22447;44.530;18.620;2023-05-20T08:23:50;21.60;99.90
36416;DHT22;22447;44.530;18.620;2023-05-20T08:26:16;21.90;99.90
36416;DHT22;22447;44.530;18.620;2023-05-20T08:28:42;22.10;98.60
36416;DHT22;22447;44.530;18.620;2023-05-20T08:31:08;22.40;97.80
36416;DHT22;22447;44.530;18.620;2023-05-20T08:33:35;22.40;97.30
36416;DHT22;22447;44.530;18.620;2023-05-20T08:36:01;22.50;97.90
36416;DHT22;22447;44.530;18.620;2023-05-20T08:38:28;22.80;95.90
36416;DHT22;22447;44.530;18.620;2023-05-20T08:40:55;22.80;94.40
36416;DHT22;22447;44.530;18.620;2023-05-20T08:43:23;23.20;94.50
36416;DHT22;22447;44.530;18.620;2023-05-20T08:45:49;23.40;94.40
36416;DHT22;22447;44.530;18.620;2023-05-20T08:48:18;23.50;92.90
36416;DHT22;22447;44.530;18.620;2023-05-20T08:50:49;23.70;92.10
36416;DHT22;22447;44.530;18.620;2023-05-20T08:53:17;24.10;93.00
36416;DHT22;22447;44.530;18.620;2023-05-20T08:55:45;24.30;91.00
36416;DHT22;22447;44.530;18.620;2023-05-20T08:58:14;24.40;90.70
36416;DHT22;22447;44.530;18.620;2023-05-20T09:00:40;24.90;91.60
36416;DHT22;22447;44.530;18.620;2023-05-20T09:03:07;25.40;86.50
36416;DHT22;22447;44.530;18.620;2023-05-20T09:05:33;25.50;86.00
36416;DHT22;22447;44.530;18.620;2023-05-20T09:08:10;25.70;82.50
36416;DHT22;22447;44.530;18.620;2023-05-20T09:10:37;25.50;81.30
36416;DHT22;22447;44.530;18.620;2023-05-20T09:13:05;25.80;83.20
36416;DHT22;22447;44.530;18.620;2023-05-20T09:15:32;25.90;82.70
36416;DHT22;22447;44.530;18.620;2023-05-20T09:18:03;26.30;86.70
36416;DHT22;22447;44.530;18.620;2023-05-20T09:20:29;26.40;77.20
36416;DHT22;22447;44.530;18.620;2023-05-20T09:23:01;26.40;79.70
36416;DHT22;22447;44.530;18.620;2023-05-20T09:25:27;26.70;80.20
36416;DHT22;22447;44.530;18.620;2023-05-20T09:27:56;27.10;82.00
36416;DHT22;22447;44.530;18.620;2023-05-20T09:30:23;27.50;78.10
36416;DHT22;22447;44.530;18.620;2023-05-20T09:32:56;27.60;74.20
36416;DHT22;22447;44.530;18.620;2023-05-20T09:35:23;27.80;74.10
36416;DHT22;22447;44.530;18.620;2023-05-20T09:37:53;27.70;69.20
36416;DHT22;22447;44.530;18.620;2023-05-20T09:40:25;27.30;71.60
36416;DHT22;22447;44.530;18.620;2023-05-20T09:43:03;27.40;73.20
36416;DHT22;22447;44.530;18.620;2023-05-20T09:45:30;27.70;70.80
36416;DHT22;22447;44.530;18.620;2023-05-20T09:47:56;27.70;74.70
36416;DHT22;22447;44.530;18.620;2023-05-20T09:50:23;27.40;66.90
36416;DHT22;22447;44.530;18.620;2023-05-20T09:52:50;27.50;67.70
36416;DHT22;22447;44.530;18.620;2023-05-20T09:55:19;27.80;67.80
36416;DHT22;22447;44.530;18.620;2023-05-20T09:57:45;27.90;68.30
36416;DHT22;22447;44.530;18.620;2023-05-20T10:00:13;27.30;67.80
36416;DHT22;22447;44.530;18.620;2023-05-20T10:02:44;27.50;67.70
36416;DHT22;22447;44.530;18.620;2023-05-20T10:05:20;27.00;67.70
36416;DHT22;22447;44.530;18.620;2023-05-20T10:08:17;27.40;71.50
36416;DHT22;22447;44.530;18.620;2023-05-20T10:10:48;27.30;67.30
36416;DHT22;22447;44.530;18.620;2023-05-20T10:13:53;27.40;66.30
36416;DHT22;22447;44.530;18.620;2023-05-20T10:16:37;27.70;56.00
36416;DHT22;22447;44.530;18.620;2023-05-20T10:21:44;27.80;52.10
36416;DHT22;22447;44.530;18.620;2023-05-20T10:24:32;26.50;49.70
36416;DHT22;22447;44.530;18.620;2023-05-20T10:27:01;25.90;49.40
36416;DHT22;22447;44.530;18.620;2023-05-20T10:29:28;25.60;56.30
36416;DHT22;22447;44.530;18.620;2023-05-20T10:31:54;26.70;54.80
36416;DHT22;22447;44.530;18.620;2023-05-20T10:34:21;27.40;52.50
36416;DHT22;22447;44.530;18.620;2023-05-20T10:39:31;27.10;51.60
36416;DHT22;22447;44.530;18.620;2023-05-20T10:42:09;27.00;51.50
36416;DHT22;22447;44.530;18.620;2023-05-20T10:44:46;26.60;48.80
36416;DHT22;22447;44.530;18.620;2023-05-20T10:47:14;26.90;48.90
36416;DHT22;22447;44.530;18.620;2023-05-20T10:49:46;26.60;53.10
36416;DHT22;22447;44.530;18.620;2023-05-20T10:52:18;27.30;54.20
36416;DHT22;22447;44.530;18.620;2023-05-20T10:54:57;27.20;48.10
36416;DHT22;22447;44.530;18.620;2023-05-20T10:57:26;27.30;49.10
36416;DHT22;22447;44.530;18.620;2023-05-20T10:59:52;27.30;51.10
36416;DHT22;22447;44.530;18.620;2023-05-20T11:02:19;26.70;50.80
36416;DHT22;22447;44.530;18.620;2023-05-20T11:04:51;26.20;53.40
36416;DHT22;22447;44.530;18.620;2023-05-20T11:07:28;26.20;52.20
36416;DHT22;22447;44.530;18.620;2023-05-20T11:09:57;26.40;51.30
36416;DHT22;22447;44.530;18.620;2023-05-20T11:12:25;26.50;52.80
36416;DHT22;22447;44.530;18.620;2023-05-20T11:14:51;26.60;53.40
36416;DHT22;22447;44.530;18.620;2023-05-20T11:17:20;27.00;52.20
36416;DHT22;22447;44.530;18.620;2023-05-20T11:19:47;26.30;51.80
36416;DHT22;22447;44.530;18.620;2023-05-20T11:22:13;26.00;52.70
36416;DHT22;22447;44.530;18.620;2023-05-20T11:24:39;26.00;53.60
36416;DHT22;22447;44.530;18.620;2023-05-20T11:27:06;26.30;53.80
36416;DHT22;22447;44.530;18.620;2023-05-20T11:29:32;26.30;50.40
36416;DHT22;22447;44.530;18.620;2023-05-20T11:31:59;25.90;52.60
36416;DHT22;22447;44.530;18.620;2023-05-20T11:34:33;26.30;56.00
36416;DHT22;22447;44.530;18.620;2023-05-20T11:36:59;27.10;57.70
36416;DHT22;22447;44.530;18.620;2023-05-20T11:39:28;27.50;55.60
36416;DHT22;22447;44.530;18.620;2023-05-20T11:41:54;26.50;53.60
36416;DHT22;22447;44.530;18.620;2023-05-20T11:44:20;27.00;56.40
36416;DHT22;22447;44.530;18.620;2023-05-20T11:46:47;26.60;53.90
36416;DHT22;22447;44.530;18.620;2023-05-20T11:49:14;27.00;56.50
36416;DHT22;22447;44.530;18.620;2023-05-20T11:51:40;27.70;57.40
36416;DHT22;22447;44.530;18.620;2023-05-20T11:54:08;28.10;55.00
36416;DHT22;22447;44.530;18.620;2023-05-20T11:56:38;28.30;54.80
36416;DHT22;22447;44.530;18.620;2023-05-20T11:59:07;28.40;53.40
36416;DHT22;22447;44.530;18.620;2023-05-20T12:01:36;27.60;52.40
36416;DHT22;22447;44.530;18.620;2023-05-20T12:04:04;27.90;56.20
36416;DHT22;22447;44.530;18.620;2023-05-20T12:06:30;27.10;52.50
36416;DHT22;22447;44.530;18.620;2023-05-20T12:08:59;27.50;55.00
36416;DHT22;22447;44.530;18.620;2023-05-20T12:11:33;26.60;53.90
36416;DHT22;22447;44.530;18.620;2023-05-20T12:14:00;27.00;59.60
36416;DHT22;22447;44.530;18.620;2023-05-20T12:16:27;27.40;56.60
36416;DHT22;22447;44.530;18.620;2023-05-20T12:18:53;27.50;58.00
36416;DHT22;22447;44.530;18.620;2023-05-20T12:21:19;27.70;57.40
36416;DHT22;22447;44.530;18.620;2023-05-20T12:23:45;27.80;58.80
36416;DHT22;22447;44.530;18.620;2023-05-20T12:26:11;28.00;57.90
36416;DHT22;22447;44.530;18.620;2023-05-20T12:28:37;27.90;58.30
36416;DHT22;22447;44.530;18.620;2023-05-20T12:31:03;27.70;59.60
36416;DHT22;22447;44.530;18.620;2023-05-20T12:33:29;27.40;57.10
36416;DHT22;22447;44.530;18.620;2023-05-20T12:35:54;27.30;57.90
36416;DHT22;22447;44.530;18.620;2023-05-20T12:38:20;27.20;59.50
36416;DHT22;22447;44.530;18.620;2023-05-20T12:40:46;27.20;57.50
36416;DHT22;22447;44.530;18.620;2023-05-20T12:43:12;26.60;56.00
36416;DHT22;22447;44.530;18.620;2023-05-20T12:45:38;26.60;57.90
36416;DHT22;22447;44.530;18.620;2023-05-20T12:48:04;26.30;56.80
36416;DHT22;22447;44.530;18.620;2023-05-20T12:50:32;25.80;56.80
36416;DHT22;22447;44.530;18.620;2023-05-20T12:52:58;26.20;61.30
36416;DHT22;22447;44.530;18.620;2023-05-20T12:55:24;26.20;54.10
36416;DHT22;22447;44.530;18.620;2023-05-20T12:57:50;26.80;57.90
36416;DHT22;22447;44.530;18.620;2023-05-20T13:00:16;27.20;55.20
36416;DHT22;22447;44.530;18.620;2023-05-20T13:02:42;27.50;54.30
36416;DHT22;22447;44.530;18.620;2023-05-20T13:05:09;27.60;55.00
36416;DHT22;22447;44.530;18.620;2023-05-20T13:07:36;27.50;53.60
36416;DHT22;22447;44.530;18.620;2023-05-20T13:10:02;26.80;50.80
36416;DHT22;22447;44.530;18.620;2023-05-20T13:12:28;26.90;54.60
36416;DHT22;22447;44.530;18.620;2023-05-20T13:14:54;26.80;53.10
36416;DHT22;22447;44.530;18.620;2023-05-20T13:17:20;26.90;53.90
36416;DHT22;22447;44.530;18.620;2023-05-20T13:19:46;26.90;54.00
36416;DHT22;22447;44.530;18.620;2023-05-20T13:22:12;26.70;52.80
36416;DHT22;22447;44.530;18.620;2023-05-20T13:24:38;26.40;53.70
36416;DHT22;22447;44.530;18.620;2023-05-20T13:27:04;26.50;53.70
36416;DHT22;22447;44.530;18.620;2023-05-20T13:29:30;26.30;52.20
36416;DHT22;22447;44.530;18.620;2023-05-20T13:31:56;26.60;55.20
36416;DHT22;22447;44.530;18.620;2023-05-20T13:34:22;26.80;55.00
36416;DHT22;22447;44.530;18.620;2023-05-20T13:36:48;26.80;54.90
36416;DHT22;22447;44.530;18.620;2023-05-20T13:39:15;26.70;53.90
36416;DHT22;22447;44.530;18.620;2023-05-20T13:41:41;26.80;53.60
36416;DHT22;22447;44.530;18.620;2023-05-20T13:44:07;26.90;55.80
36416;DHT22;22447;44.530;18.620;2023-05-20T13:46:34;26.90;53.20
36416;DHT22;22447;44.530;18.620;2023-05-20T13:49:00;26.90;52.30
36416;DHT22;22447;44.530;18.620;2023-05-20T13:51:26;26.90;51.90
36416;DHT22;22447;44.530;18.620;2023-05-20T13:53:52;26.80;52.10
36416;DHT22;22447;44.530;18.620;2023-05-20T13:56:18;26.80;52.80
36416;DHT22;22447;44.530;18.620;2023-05-20T13:58:44;26.60;50.70
36416;DHT22;22447;44.530;18.620;2023-05-20T14:01:10;26.80;51.50
36416;DHT22;22447;44.530;18.620;2023-05-20T14:03:37;26.80;51.80
36416;DHT22;22447;44.530;18.620;2023-05-20T14:06:05;26.90;53.00
36416;DHT22;22447;44.530;18.620;2023-05-20T14:08:31;26.80;52.10
36416;DHT22;22447;44.530;18.620;2023-05-20T14:10:57;26.80;51.70
36416;DHT22;22447;44.530;18.620;2023-05-20T14:13:24;26.80;52.30
36416;DHT22;22447;44.530;18.620;2023-05-20T14:15:50;26.80;52.10
36416;DHT22;22447;44.530;18.620;2023-05-20T14:18:17;26.80;53.30
36416;DHT22;22447;44.530;18.620;2023-05-20T14:20:44;26.70;54.70
36416;DHT22;22447;44.530;18.620;2023-05-20T14:23:10;26.70;53.20
36416;DHT22;22447;44.530;18.620;2023-05-20T14:25:37;26.60;53.30
36416;DHT22;22447;44.530;18.620;2023-05-20T14:28:03;26.50;52.40
36416;DHT22;22447;44.530;18.620;2023-05-20T14:30:29;26.40;54.00
36416;DHT22;22447;44.530;18.620;2023-05-20T14:32:55;26.30;53.40
36416;DHT22;22447;44.530;18.620;2023-05-20T14:35:21;26.10;54.30
36416;DHT22;22447;44.530;18.620;2023-05-20T14:37:47;26.00;53.40
36416;DHT22;22447;44.530;18.620;2023-05-20T14:40:13;26.00;55.20
36416;DHT22;22447;44.530;18.620;2023-05-20T14:42:39;25.80;54.30
36416;DHT22;22447;44.530;18.620;2023-05-20T14:45:06;25.70;53.20
36416;DHT22;22447;44.530;18.620;2023-05-20T14:47:32;25.60;53.20
36416;DHT22;22447;44.530;18.620;2023-05-20T14:49:59;25.60;53.40
36416;DHT22;22447;44.530;18.620;2023-05-20T14:52:25;25.70;55.60
36416;DHT22;22447;44.530;18.620;2023-05-20T14:54:51;25.70;56.00
36416;DHT22;22447;44.530;18.620;2023-05-20T14:57:17;25.40;55.40
36416;DHT22;22447;44.530;18.620;2023-05-20T14:59:44;25.40;55.50
36416;DHT22;22447;44.530;18.620;2023-05-20T15:02:10;25.30;57.30
36416;DHT22;22447;44.530;18.620;2023-05-20T15:04:38;25.30;57.30
36416;DHT22;22447;44.530;18.620;2023-05-20T15:07:04;25.20;55.50
36416;DHT22;22447;44.530;18.620;2023-05-20T15:09:30;25.00;54.70
36416;DHT22;22447;44.530;18.620;2023-05-20T15:11:56;24.90;55.10
36416;DHT22;22447;44.530;18.620;2023-05-20T15:14:22;24.80;57.20
36416;DHT22;22447;44.530;18.620;2023-05-20T15:16:48;24.70;58.10
36416;DHT22;22447;44.530;18.620;2023-05-20T15:19:15;24.60;58.60
36416;DHT22;22447;44.530;18.620;2023-05-20T15:21:41;24.50;58.00
36416;DHT22;22447;44.530;18.620;2023-05-20T15:24:07;24.40;58.20